首页
METAR-TAF:

METAR-TAF

机场 :

費城國際機場

費城, 宾夕法尼亚州, 美国

纬度: 39-52-06N, 经度: 075-13-52W, 海拔: 6米

当前天气观测

该预报发布于18分钟前的23:54 UTC
风速8节,风向
温度 27°C
湿度 62%
气压 1009 hPa
能見度: 16.1公里
少量云层高于17000英尺
多云层高于21000英尺
多云层高于25000英尺

METAR: KPHL 242354Z 18008KT 10SM FEW170 BKN210 BKN250 27/19 A2981 RMK AO2 SLP093 T02720189 10300 20272 56009 $

时间: 20:12 (00:12 UTC)

预报

该预报发布于40分钟前的23:32 UTC
预报有效从25日的 00点(UTC)到 26日的 06点(UTC)
风速6节,风向
能見度: 10公里
散云层高于12000英尺
阴天层高于18000英尺
从 25日的 0800点(UTC)
风速5节,风向多变
能見度: 9.7公里
多云层高于2000英尺, 积雨云.
阴天层高于4000英尺
小阵雨, 附近有雷暴
从 25日的 1100点(UTC)
风速5节,风向多变
能見度: 9.7公里
散云层高于1000英尺
阴天层高于2000英尺
小阵雨
从 25日的 1500点(UTC)
风速10节,风向西
能見度: 10公里
散云层高于4000英尺
多云层高于25000英尺
从 25日的 1800点(UTC)
风速10节,风向西,有时为17节阵风
能見度: 10公里
少量云层高于5000英尺
多云层高于25000英尺
从 25日的 2300点(UTC)
风速8节,风向西
能見度: 10公里
多云层高于25000英尺

TAF: KPHL 242332Z 2500/2606 17006KT P6SM SCT120 OVC180 FM250800 VRB05KT 6SM -SHRA VCTS BKN020CB OVC040 FM251100 VRB05KT 6SM -SHRA SCT010 OVC020 FM251500 28010KT P6SM SCT040 BKN250 FM251800 27010G17KT P6SM FEW050 BKN250 FM252300 28008KT P6SM BKN250

超过4000个机场的气象观测和天气预报(METAR&TAF报告)。

可查询的气象台以黄色和红色小点在地图上表示。

将鼠标移到小点上方,可查看气象台名称。

然后点击查看天气观测和预报。

如需切换地图:点击带黑十字的绿色按钮放大地图;点击带横线的绿色按钮缩小地图;或者点击绿色箭头查看邻近地区的地图。


METAR-TAF: